Time;durP1;ratioP1;P1;durP2;ratioP2;P2;SDS_P1;SDS_P2;PMS_P1;PMS_P2;Temp;Humidity;BMP_temperature;BMP_pressure;BME280_temperature;BME280_humidity;BME280_pressure;Samples;Min_cycle;Max_cycle;Signal;HPM_P1;HPM_P2
2022/03/05 00:01:15;;;;;;;;;57.50;45.25;;;;;10.71;68.98;101218.56;5057957;28;45489;-74
2022/03/05 00:03:40;;;;;;;;;58.75;45.25;;;;;10.69;68.70;101214.97;5058052;28;46324;-79
2022/03/05 00:06:06;;;;;;;;;45.00;36.50;;;;;10.67;69.44;101204.44;5057742;28;45351;-80
2022/03/05 00:08:31;;;;;;;;;54.75;42.50;;;;;10.72;69.15;101205.38;5058246;28;45379;-79
2022/03/05 00:10:57;;;;;;;;;52.25;42.25;;;;;10.71;69.13;101205.38;5059537;28;45386;-77
2022/03/05 00:13:22;;;;;;;;;57.25;44.50;;;;;10.70;69.58;101206.22;5059951;28;46184;-78
2022/03/05 00:15:48;;;;;;;;;54.50;45.00;;;;;10.75;69.21;101218.59;5061800;28;45375;-78
2022/03/05 00:18:14;;;;;;;;;53.25;45.00;;;;;10.72;69.36;101200.13;5059904;28;45228;-78
2022/03/05 00:20:40;;;;;;;;;56.25;41.50;;;;;10.71;68.93;101198.34;5060041;28;45296;-78
2022/03/05 00:23:06;;;;;;;;;48.75;40.50;;;;;10.71;69.24;101206.25;5059704;28;47301;-82
2022/03/05 00:25:31;;;;;;;;;58.00;47.00;;;;;10.77;68.94;101208.06;5060189;28;45339;-80
2022/03/05 00:27:57;;;;;;;;;52.00;43.75;;;;;10.76;69.45;101207.19;5058460;28;45291;-82
2022/03/05 00:30:22;;;;;;;;;53.25;45.00;;;;;10.72;69.69;101205.38;5060609;28;45391;-81
2022/03/05 00:32:48;;;;;;;;;56.50;45.50;;;;;10.71;69.32;101205.38;5058478;28;46077;-80
2022/03/05 00:35:14;;;;;;;;;51.50;41.50;;;;;10.68;68.99;101202.66;5056511;28;46058;-80
2022/03/05 00:37:40;;;;;;;;;53.50;43.25;;;;;10.72;70.01;101208.03;5039755;28;45395;-79
2022/03/05 00:40:07;;;;;;;;;56.75;43.75;;;;;10.69;68.95;101202.69;5057122;28;45460;-79
2022/03/05 00:42:32;;;;;;;;;44.50;38.50;;;;;10.64;69.59;101206.13;5057319;28;47531;-82
2022/03/05 00:44:58;;;;;;;;;56.00;38.50;;;;;10.48;69.52;101189.22;5057422;28;45266;-81
2022/03/05 00:47:23;;;;;;;;;52.75;41.75;;;;;10.52;69.59;101205.09;5057452;28;45373;-79
2022/03/05 00:49:49;;;;;;;;;53.75;41.75;;;;;10.49;70.23;101205.03;5058114;28;45952;-76
2022/03/05 00:52:14;;;;;;;;;58.25;45.25;;;;;10.55;69.59;101207.78;5057290;28;46164;-77
2022/03/05 00:54:39;;;;;;;;;51.00;42.50;;;;;10.52;69.58;101194.56;5057835;28;45415;-79
2022/03/05 00:57:05;;;;;;;;;54.50;44.50;;;;;10.59;69.66;101200.78;5058331;28;45245;-81
2022/03/05 00:59:30;;;;;;;;;48.25;40.00;;;;;10.55;69.78;101198.97;5058204;28;45242;-79
2022/03/05 01:01:56;;;;;;;;;52.50;41.75;;;;;10.60;69.21;101202.56;5058501;28;46814;-82
2022/03/05 01:04:22;;;;;;;;;47.25;42.00;;;;;10.57;69.62;101200.78;5058543;28;45517;-82
2022/03/05 01:06:47;;;;;;;;;49.50;38.00;;;;;10.55;69.95;101209.53;5059791;28;45501;-82
2022/03/05 01:09:13;;;;;;;;;49.75;40.00;;;;;10.55;69.64;101197.22;5060225;28;45401;-78
2022/03/05 01:11:38;;;;;;;;;51.75;41.50;;;;;10.51;69.33;101186.63;5039366;28;47389;-81
2022/03/05 01:14:04;;;;;;;;;57.25;45.75;;;;;10.45;69.53;101194.44;5055768;28;45420;-79
2022/03/05 01:16:30;;;;;;;;;44.50;38.25;;;;;10.38;69.26;101187.31;5057035;28;45323;-82
2022/03/05 01:18:55;;;;;;;;;43.00;36.75;;;;;10.46;69.60;101206.75;5057086;28;45407;-79
2022/03/05 01:21:21;;;;;;;;;47.00;37.50;;;;;10.49;69.12;101197.13;5056760;28;46225;-82
2022/03/05 01:23:47;;;;;;;;;52.25;39.25;;;;;10.46;69.08;101183.03;5056711;28;45402;-78
2022/03/05 01:26:12;;;;;;;;;45.00;36.75;;;;;10.49;69.14;101193.63;5056797;28;45395;-77
2022/03/05 01:28:38;;;;;;;;;52.50;40.50;;;;;10.50;68.99;101191.00;5056792;28;45403;-80
2022/03/05 01:31:03;;;;;;;;;45.50;37.75;;;;;10.52;69.57;101186.66;5056603;28;46599;-78
2022/03/05 01:33:28;;;;;;;;;45.25;38.25;;;;;10.52;68.90;101189.28;5056678;28;45638;-77
2022/03/05 01:35:54;;;;;;;;;45.50;38.00;;;;;10.50;68.66;101190.13;5038795;28;45597;-78
2022/03/05 01:38:19;;;;;;;;;44.75;39.25;;;;;10.51;68.86;101190.13;5056746;28;45212;-74
2022/03/05 01:40:46;;;;;;;;;52.25;40.00;;;;;10.51;68.77;101195.41;5056483;28;47072;-78
2022/03/05 01:43:12;;;;;;;;;33.00;28.00;;;;;10.46;69.43;101194.47;5058333;28;45678;-74
2022/03/05 01:45:38;;;;;;;;;49.25;41.50;;;;;10.46;68.61;101193.56;5056412;28;45349;-75
2022/03/05 01:48:04;;;;;;;;;53.75;40.25;;;;;10.33;68.60;101179.34;5056708;28;45440;-80
2022/03/05 01:50:30;;;;;;;;;50.50;40.00;;;;;10.39;68.48;101189.06;5056230;28;46311;-76
2022/03/05 01:52:56;;;;;;;;;49.25;42.00;;;;;10.36;68.96;101189.03;5056031;28;45392;-77
2022/03/05 01:55:22;;;;;;;;;46.00;38.75;;;;;10.38;68.58;101195.22;5056140;28;45398;-77
2022/03/05 01:57:48;;;;;;;;;42.50;36.50;;;;;10.36;69.24;101199.56;5056594;28;45439;-78
2022/03/05 02:00:14;;;;;;;;;44.25;37.25;;;;;10.31;69.31;101202.13;5056122;28;47178;-79
2022/03/05 02:02:41;;;;;;;;;43.50;39.00;;;;;10.26;69.15;101191.53;5056154;28;45441;-78
2022/03/05 02:05:07;;;;;;;;;45.50;40.75;;;;;10.23;69.01;101193.19;5056320;28;45332;-78
2022/03/05 02:07:33;;;;;;;;;56.50;40.00;;;;;10.10;69.18;101185.94;5056171;28;45513;-77
2022/03/05 02:09:58;;;;;;;;;44.25;38.75;;;;;10.07;69.19;101186.78;5055776;28;46125;-76
2022/03/05 02:12:31;;;;;;;;;41.75;39.00;;;;;10.01;69.76;101189.31;5055994;28;45387;-77
2022/03/05 02:14:59;;;;;;;;;43.25;37.50;;;;;9.92;69.71;101200.56;5038056;28;45355;-75
2022/03/05 02:17:28;;;;;;;;;34.75;32.25;;;;;9.89;70.12;101197.88;5057279;28;45390;-75
2022/03/05 02:19:54;;;;;;;;;45.25;36.25;;;;;9.79;70.46;101181.91;5056315;28;46820;-79
2022/03/05 02:22:20;;;;;;;;;50.00;42.00;;;;;9.82;70.31;101195.13;5037957;28;45488;-75
2022/03/05 02:24:47;;;;;;;;;55.00;39.50;;;;;9.72;71.22;101188.81;5055937;28;45160;-77
2022/03/05 02:27:13;;;;;;;;;45.00;38.00;;;;;9.75;70.61;101198.50;5056425;28;45478;-79
2022/03/05 02:29:39;;;;;;;;;45.25;37.75;;;;;9.80;70.88;101194.22;5056315;28;46159;-78
2022/03/05 02:32:05;;;;;;;;;38.00;35.25;;;;;9.84;70.96;101193.38;5055869;28;45410;-74
2022/03/05 02:34:30;;;;;;;;;44.50;37.75;;;;;9.88;70.60;101193.50;5055993;28;45362;-78
2022/03/05 02:36:56;;;;;;;;;41.00;38.00;;;;;9.92;70.27;101191.78;5055996;28;45490;-77
2022/03/05 02:39:25;;;;;;;;;44.75;37.50;;;;;9.93;70.30;101191.81;5055991;28;45602;-78
2022/03/05 02:41:54;;;;;;;;;49.75;40.50;;;;;9.96;70.10;101186.63;5055705;28;45176;-75
2022/03/05 02:44:21;;;;;;;;;49.50;39.00;;;;;9.91;70.16;101185.63;5055879;28;45374;-75
2022/03/05 02:46:47;;;;;;;;;45.75;37.25;;;;;9.98;70.43;101184.00;5037748;28;45360;-76
2022/03/05 02:49:12;;;;;;;;;45.00;36.25;;;;;10.04;70.46;101178.81;5055737;28;45400;-76
2022/03/05 02:51:38;;;;;;;;;36.25;33.25;;;;;10.05;69.39;101184.97;5055856;28;45448;-74
2022/03/05 02:54:04;;;;;;;;;41.75;36.25;;;;;9.95;69.55;101163.75;5056665;28;45759;-77
2022/03/05 02:56:29;;;;;;;;;40.25;35.25;;;;;10.09;70.12;101181.53;5056179;28;45236;-74
2022/03/05 02:58:55;;;;;;;;;40.00;37.25;;;;;10.04;69.60;101181.44;5055286;28;46281;-76
2022/03/05 03:01:20;;;;;;;;;42.00;37.50;;;;;9.97;69.66;101172.59;5037893;28;45787;-77
2022/03/05 03:03:46;;;;;;;;;32.25;32.25;;;;;10.00;69.80;101179.66;5055313;28;45293;-77
2022/03/05 03:06:11;;;;;;;;;44.75;39.00;;;;;10.02;69.87;101180.56;5056102;28;45487;-76
2022/03/05 03:08:36;;;;;;;;;41.00;35.75;;;;;9.92;70.33;101158.47;5055757;28;46160;-77
2022/03/05 03:11:02;;;;;;;;;48.00;39.00;;;;;9.99;69.18;101183.13;5037990;28;45440;-76
2022/03/05 03:13:27;;;;;;;;;49.25;38.25;;;;;9.98;68.84;101173.47;5055911;28;45251;-76
2022/03/05 03:15:53;;;;;;;;;36.50;32.25;;;;;9.99;69.05;101172.63;5055746;28;45623;-79
2022/03/05 03:18:19;;;;;;;;;38.00;34.50;;;;;10.00;69.60;101174.38;5056280;28;45988;-79
2022/03/05 03:20:44;;;;;;;;;38.25;33.50;;;;;10.01;69.67;101176.16;5055398;28;45381;-81
2022/03/05 03:23:10;;;;;;;;;42.00;38.00;;;;;9.98;69.20;101173.47;5055365;28;45387;-80
2022/03/05 03:25:38;;;;;;;;;43.50;37.00;;;;;9.94;69.81;101166.38;5055275;28;45425;-78
2022/03/05 03:28:04;;;;;;;;;46.00;37.50;;;;;10.01;69.46;101168.25;5055789;28;46260;-80
2022/03/05 03:30:30;;;;;;;;;43.00;37.00;;;;;10.07;68.96;101176.25;5058867;28;45323;-74
2022/03/05 03:32:55;;;;;;;;;50.75;38.75;;;;;10.08;69.35;101183.28;5058457;28;45386;-78
2022/03/05 03:35:21;;;;;;;;;38.50;35.50;;;;;10.03;69.21;101170.91;5058953;28;45489;-79
2022/03/05 03:37:46;;;;;;;;;42.50;38.00;;;;;10.11;69.11;101178.06;5058461;28;47252;-81
2022/03/05 03:40:14;;;;;;;;;33.00;32.75;;;;;10.08;69.30;101170.13;5058259;28;45325;-75
2022/03/05 03:42:41;;;;;;;;;51.50;40.75;;;;;10.06;69.25;101163.09;5058780;28;45395;-79
2022/03/05 03:45:07;;;;;;;;;45.50;36.00;;;;;10.06;68.82;101168.34;5058385;28;45473;-80
2022/03/05 03:47:33;;;;;;;;;47.25;37.50;;;;;10.06;69.52;101168.34;5058219;28;45565;-83
2022/03/05 03:49:58;;;;;;;;;45.50;38.25;;;;;9.99;69.37;101164.72;5058285;28;45323;-80
2022/03/05 03:52:24;;;;;;;;;42.50;38.25;;;;;10.03;69.35;101178.81;5058255;28;45209;-80
2022/03/05 03:54:50;;;;;;;;;42.50;36.75;;;;;10.03;69.33;101178.81;5058194;28;45568;-79
2022/03/05 03:57:16;;;;;;;;;40.00;35.50;;;;;10.01;69.20;101181.41;5057924;28;47155;-77
2022/03/05 03:59:42;;;;;;;;;40.50;35.00;;;;;9.97;69.41;101183.13;5058079;28;45330;-74
2022/03/05 04:02:07;;;;;;;;;35.00;33.00;;;;;9.95;69.65;101179.56;5058076;28;45323;-74
2022/03/05 04:04:33;;;;;;;;;38.50;36.00;;;;;9.95;69.23;101178.66;5059633;28;45577;-73
2022/03/05 04:09:43;;;;;;;;;47.75;39.00;;;;;9.90;69.60;101175.97;5057755;28;45344;-81
2022/03/05 04:12:08;;;;;;;;;42.50;33.25;;;;;9.85;69.52;101161.84;5058202;28;45581;-81
2022/03/05 04:14:35;;;;;;;;;42.00;37.75;;;;;9.89;69.97;101176.84;5058076;28;45451;-77
2022/03/05 04:17:00;;;;;;;;;43.00;37.50;;;;;9.87;69.54;101175.94;5057596;28;45529;-79
2022/03/05 04:19:26;;;;;;;;;48.25;40.00;;;;;9.86;69.81;101184.66;5057553;28;45385;-78
2022/03/05 04:21:51;;;;;;;;;47.25;37.00;;;;;9.86;69.71;101183.78;5057748;28;45468;-78
2022/03/05 04:24:17;;;;;;;;;47.75;38.25;;;;;9.71;69.98;101158.09;5057771;28;45489;-81
2022/03/05 04:26:42;;;;;;;;;45.75;37.75;;;;;9.82;70.21;101187.22;5057479;28;45964;-81
2022/03/05 04:29:08;;;;;;;;;45.75;38.25;;;;;9.82;70.07;101179.31;5057953;28;45322;-82
2022/03/05 04:31:33;;;;;;;;;45.00;36.00;;;;;9.82;69.39;101179.31;5057811;28;45601;-79
2022/03/05 04:33:58;;;;;;;;;43.75;38.75;;;;;9.77;70.03;101173.09;5058728;28;45320;-79
2022/03/05 04:36:24;;;;;;;;;50.75;40.75;;;;;9.75;69.75;101177.44;5057250;28;46049;-81
2022/03/05 04:38:49;;;;;;;;;35.50;32.75;;;;;9.73;70.14;101171.28;5057998;28;45340;-77
2022/03/05 04:41:17;;;;;;;;;37.75;36.50;;;;;9.75;70.18;101180.06;5058799;28;45276;-76
2022/03/05 04:43:42;;;;;;;;;39.25;36.50;;;;;9.68;69.47;101179.09;5058144;28;45319;-76
2022/03/05 04:46:07;;;;;;;;;42.25;37.50;;;;;9.72;70.06;101180.91;5057402;28;45279;-76
2022/03/05 04:48:33;;;;;;;;;45.75;39.00;;;;;9.70;69.77;101180.88;5057442;28;45307;-74
2022/03/05 04:50:58;;;;;;;;;50.50;38.75;;;;;9.63;69.60;101172.84;5057748;28;45647;-74
2022/03/05 04:53:23;;;;;;;;;39.75;36.75;;;;;9.67;69.89;101186.06;5039272;28;45480;-78
2022/03/05 04:55:49;;;;;;;;;48.50;38.25;;;;;9.62;69.69;101178.97;5056741;28;46234;-76
2022/03/05 04:58:15;;;;;;;;;35.25;35.25;;;;;9.69;69.91;101184.38;5057286;28;45375;-79
2022/03/05 05:00:41;;;;;;;;;45.50;39.00;;;;;9.69;69.93;101191.41;5057385;28;45436;-76
2022/03/05 05:03:06;;;;;;;;;51.00;42.75;;;;;9.66;70.03;101188.69;5057918;28;45366;-75
2022/03/05 05:05:32;;;;;;;;;34.75;33.75;;;;;9.66;69.81;101191.31;5057612;28;46629;-81
2022/03/05 05:07:57;;;;;;;;;50.25;39.00;;;;;9.62;70.02;101184.25;5057922;28;45555;-80
2022/03/05 05:10:23;;;;;;;;;38.75;35.25;;;;;9.61;70.25;101190.38;5057994;28;45438;-80
2022/03/05 05:12:48;;;;;;;;;43.50;38.00;;;;;9.51;69.89;101173.53;5057924;28;45618;-78
2022/03/05 05:15:14;;;;;;;;;40.75;36.25;;;;;9.56;70.09;101187.63;5058071;28;45241;-74
2022/03/05 05:17:39;;;;;;;;;45.75;38.50;;;;;9.59;70.23;101194.72;5057237;28;45439;-76
2022/03/05 05:20:06;;;;;;;;;50.00;40.50;;;;;9.62;70.22;101202.66;5057206;28;45346;-79
2022/03/05 05:22:33;;;;;;;;;41.75;38.50;;;;;9.63;70.29;101199.16;5057058;28;45472;-82
2022/03/05 05:24:59;;;;;;;;;46.00;38.25;;;;;9.60;70.04;101188.59;5056913;28;45696;-81
2022/03/05 05:27:24;;;;;;;;;43.50;40.00;;;;;9.65;70.06;101192.19;5056932;28;45390;-79
2022/03/05 05:29:50;;;;;;;;;39.75;36.25;;;;;9.60;69.63;101202.63;5056784;28;45422;-80
2022/03/05 05:32:16;;;;;;;;;47.75;39.25;;;;;9.58;70.20;101209.56;5056904;28;45450;-79
2022/03/05 05:34:41;;;;;;;;;41.25;34.75;;;;;9.52;70.37;101198.06;5056613;28;46253;-81
2022/03/05 05:37:07;;;;;;;;;41.25;35.75;;;;;9.55;70.41;101206.91;5056734;28;45244;-78
2022/03/05 05:39:32;;;;;;;;;46.75;37.75;;;;;9.55;70.61;101206.91;5056867;28;45421;-80
2022/03/05 05:41:58;;;;;;;;;47.25;38.75;;;;;9.55;70.26;101212.16;5056454;28;45621;-78
2022/03/05 05:44:23;;;;;;;;;40.25;37.00;;;;;9.55;70.04;101213.91;5056264;28;46391;-77
2022/03/05 05:46:49;;;;;;;;;51.00;40.25;;;;;9.53;70.40;101210.38;5056269;28;45347;-80
2022/03/05 05:49:14;;;;;;;;;51.00;39.00;;;;;9.55;70.31;101222.69;5056753;28;45284;-74
2022/03/05 05:51:40;;;;;;;;;46.50;40.00;;;;;9.48;70.14;101201.50;5059158;28;45260;-74
2022/03/05 05:54:05;;;;;;;;;53.75;44.75;;;;;9.55;70.20;101214.78;5056109;28;46865;-78
2022/03/05 05:56:31;;;;;;;;;49.75;39.25;;;;;9.54;70.39;101222.66;5055778;28;45426;-74
2022/03/05 05:58:56;;;;;;;;;46.25;36.75;;;;;9.54;70.38;101212.13;5056170;28;45479;-81
2022/03/05 06:01:23;;;;;;;;;52.75;41.00;;;;;9.45;70.52;101206.69;5056645;28;45335;-80
2022/03/05 06:03:49;;;;;;;;;48.50;39.75;;;;;9.51;70.74;101218.22;5056164;28;47023;-75
2022/03/05 06:06:16;;;;;;;;;46.50;39.75;;;;;9.50;70.80;101212.94;5056076;28;45399;-76
2022/03/05 06:08:43;;;;;;;;;53.75;41.50;;;;;9.49;70.69;101205.88;5056562;28;45398;-79
2022/03/05 06:11:08;;;;;;;;;55.75;44.00;;;;;9.57;70.50;101225.34;5056656;28;45445;-77
2022/03/05 06:13:33;;;;;;;;;50.25;38.75;;;;;9.55;70.61;101227.06;5055910;28;47039;-80
2022/03/05 06:15:59;;;;;;;;;48.75;40.00;;;;;9.54;70.66;101223.53;5056025;28;45420;-79
2022/03/05 06:18:24;;;;;;;;;41.25;36.50;;;;;9.56;70.39;101219.19;5056120;28;45514;-78
2022/03/05 06:20:50;;;;;;;;;52.00;41.00;;;;;9.50;69.84;101216.47;5056135;28;45315;-80
2022/03/05 06:23:17;;;;;;;;;43.25;39.75;;;;;9.49;70.23;101219.03;5055890;28;47031;-79
2022/03/05 06:25:43;;;;;;;;;43.00;37.50;;;;;9.47;70.73;101223.38;5056729;28;45441;-76
2022/03/05 06:28:08;;;;;;;;;47.50;42.00;;;;;9.48;70.44;101222.53;5059327;28;45327;-77
2022/03/05 06:30:34;;;;;;;;;50.25;39.50;;;;;9.44;70.61;101229.47;5056290;28;45390;-80
2022/03/05 06:32:59;;;;;;;;;35.00;32.00;;;;;9.40;71.14;101217.16;5055462;28;46902;-80
2022/03/05 06:35:25;;;;;;;;;47.50;37.75;;;;;9.40;71.23;101233.81;5056095;28;45450;-77
2022/03/05 06:37:50;;;;;;;;;47.50;37.50;;;;;9.43;70.72;101238.22;5056502;28;45382;-76
2022/03/05 06:40:16;;;;;;;;;40.25;35.75;;;;;9.47;70.71;101244.44;5056362;28;45391;-78
2022/03/05 06:42:45;;;;;;;;;49.50;40.00;;;;;9.43;70.75;101231.22;5056187;28;46971;-75
2022/03/05 06:45:10;;;;;;;;;43.00;37.50;;;;;9.51;70.47;101241.03;5056386;28;45293;-76
2022/03/05 06:47:36;;;;;;;;;46.50;39.25;;;;;9.51;70.58;101247.16;5056543;28;45411;-81
2022/03/05 06:50:03;;;;;;;;;45.00;38.75;;;;;9.48;69.90;101240.94;5055940;28;45427;-79
2022/03/05 06:52:28;;;;;;;;;44.00;38.25;;;;;9.55;70.27;101234.94;5055617;28;46484;-78
2022/03/05 06:54:54;;;;;;;;;37.50;33.00;;;;;9.65;70.17;101247.41;5037669;28;45420;-77
2022/03/05 06:57:19;;;;;;;;;46.75;36.50;;;;;9.71;69.54;101253.69;5056144;28;45492;-77
2022/03/05 06:59:45;;;;;;;;;42.25;37.00;;;;;9.72;69.39;101251.94;5055531;28;45458;-75
2022/03/05 07:02:10;;;;;;;;;44.25;37.75;;;;;9.79;69.13;101258.22;5058053;28;45625;-77
2022/03/05 07:04:36;;;;;;;;;42.75;36.00;;;;;9.81;69.11;101243.34;5059195;28;45430;-79
2022/03/05 07:07:01;;;;;;;;;43.75;39.50;;;;;9.90;68.38;101247.03;5059135;28;45523;-79
2022/03/05 07:09:27;;;;;;;;;46.75;40.00;;;;;9.91;68.91;101258.44;5059991;28;45369;-80
2022/03/05 07:11:52;;;;;;;;;45.25;38.75;;;;;9.96;68.67;101259.44;5059315;28;46031;-79
2022/03/05 07:14:17;;;;;;;;;42.00;37.25;;;;;9.98;67.93;101258.59;5059220;28;45365;-77
2022/03/05 07:16:43;;;;;;;;;46.75;37.25;;;;;10.14;67.76;101267.63;5059871;28;45325;-77
2022/03/05 07:19:09;;;;;;;;;47.25;40.50;;;;;10.14;67.47;101264.97;5059348;28;45453;-78
2022/03/05 07:21:34;;;;;;;;;28.75;28.25;;;;;10.23;66.92;101270.44;5058607;28;46942;-76
2022/03/05 07:23:59;;;;;;;;;37.00;30.25;;;;;10.15;66.95;101269.41;5058765;28;45272;-76
2022/03/05 07:26:25;;;;;;;;;47.00;40.75;;;;;10.17;67.03;101279.97;5058505;28;45392;-77
2022/03/05 07:28:51;;;;;;;;;46.00;39.00;;;;;10.11;67.28;101269.31;5058869;28;45228;-80
2022/03/05 07:31:17;;;;;;;;;48.75;39.00;;;;;10.11;67.10;101278.09;5058052;28;46262;-74
2022/03/05 07:33:42;;;;;;;;;51.00;39.75;;;;;10.11;66.82;101272.84;5058370;28;45232;-75
2022/03/05 07:36:07;;;;;;;;;50.75;41.50;;;;;10.07;67.25;101273.66;5058627;28;45284;-77
2022/03/05 07:38:34;;;;;;;;;49.25;42.25;;;;;10.10;66.59;101278.97;5060653;28;45597;-79
2022/03/05 07:40:59;;;;;;;;;46.00;41.00;;;;;10.06;66.64;101276.28;5059248;28;45533;-78
2022/03/05 07:43:25;;;;;;;;;48.75;42.50;;;;;10.07;66.94;101278.91;5058070;28;45476;-78
2022/03/05 07:45:50;;;;;;;;;58.25;42.25;;;;;10.11;66.89;101288.63;5058117;28;45502;-78
2022/03/05 07:48:19;;;;;;;;;49.75;39.25;;;;;10.16;66.60;101292.25;5058461;28;45374;-81
2022/03/05 07:50:46;;;;;;;;;45.50;38.25;;;;;10.16;66.40;101294.88;5058273;28;45599;-78
2022/03/05 07:53:11;;;;;;;;;47.00;39.00;;;;;10.17;66.60;101294.03;5058097;28;45307;-80
2022/03/05 07:55:37;;;;;;;;;49.50;38.25;;;;;10.17;66.07;101294.03;5057877;28;45352;-78
2022/03/05 07:58:02;;;;;;;;;46.50;39.50;;;;;10.20;66.58;101301.06;5058299;28;45523;-79
2022/03/05 08:00:28;;;;;;;;;55.50;43.00;;;;;10.26;66.35;101295.97;5057672;28;46090;-81
2022/03/05 08:02:53;;;;;;;;;55.00;43.25;;;;;10.25;65.49;101294.19;5058043;28;45348;-78
2022/03/05 08:05:19;;;;;;;;;46.25;38.25;;;;;10.26;65.86;101296.84;5057782;28;45815;-79
2022/03/05 08:07:45;;;;;;;;;53.50;40.75;;;;;10.29;66.29;101290.75;5058142;28;45505;-77
2022/03/05 08:10:10;;;;;;;;;50.25;42.00;;;;;10.34;65.78;101298.75;5057865;28;46125;-75
2022/03/05 08:12:36;;;;;;;;;47.00;40.00;;;;;10.32;65.88;101293.41;5057883;28;45399;-80
2022/03/05 08:15:03;;;;;;;;;49.25;42.25;;;;;10.38;65.78;101293.53;5057691;28;45347;-80
2022/03/05 08:17:29;;;;;;;;;51.75;39.00;;;;;10.45;65.10;101298.06;5056864;28;45395;-81
2022/03/05 08:19:54;;;;;;;;;46.75;41.25;;;;;10.44;65.26;101298.03;5057556;28;46314;-80
2022/03/05 08:22:20;;;;;;;;;39.00;38.00;;;;;10.51;65.71;101303.41;5039774;28;45288;-80
2022/03/05 08:24:46;;;;;;;;;49.75;36.25;;;;;10.46;65.49;101296.31;5057525;28;45320;-80
2022/03/05 08:27:11;;;;;;;;;42.75;37.00;;;;;10.41;64.71;101285.69;5040000;28;45312;-81
2022/03/05 08:29:37;;;;;;;;;47.75;39.75;;;;;10.55;64.55;101304.38;5057251;28;46068;-79
2022/03/05 08:32:02;;;;;;;;;39.75;37.00;;;;;10.51;65.19;101297.25;5057186;28;45502;-82
2022/03/05 08:34:28;;;;;;;;;46.25;38.50;;;;;10.51;65.50;101290.22;5057614;28;45225;-80
2022/03/05 08:36:53;;;;;;;;;52.00;40.00;;;;;10.62;64.67;101293.06;5057879;28;45371;-81
2022/03/05 08:39:18;;;;;;;;;51.25;42.00;;;;;10.68;64.66;101287.00;5057930;28;46462;-81
2022/03/05 08:41:44;;;;;;;;;49.25;42.25;;;;;10.81;63.49;101303.03;5057680;28;45420;-80
2022/03/05 08:44:09;;;;;;;;;44.00;38.50;;;;;10.87;64.14;101293.44;5058081;28;45971;-80
2022/03/05 08:46:35;;;;;;;;;53.25;42.00;;;;;11.04;63.35;101308.63;5057791;28;45433;-79
2022/03/05 08:49:00;;;;;;;;;43.50;38.00;;;;;11.18;62.63;101302.69;5056443;28;46046;-82
2022/03/05 08:51:25;;;;;;;;;40.75;37.00;;;;;11.27;63.16;101305.44;5057826;28;45448;-82
2022/03/05 08:53:51;;;;;;;;;49.75;40.00;;;;;11.34;62.44;101294.97;5057442;28;45370;-81
2022/03/05 08:56:16;;;;;;;;;48.75;38.75;;;;;11.42;61.16;101309.16;5057300;28;45369;-79
2022/03/05 08:58:42;;;;;;;;;49.75;38.25;;;;;11.52;61.92;101312.81;5057138;28;46502;-80
2022/03/05 09:01:08;;;;;;;;;44.75;37.50;;;;;11.62;60.87;101304.13;5056653;28;45315;-79
2022/03/05 09:03:34;;;;;;;;;49.25;39.00;;;;;11.67;61.25;101294.53;5056973;28;45465;-80
2022/03/05 09:06:00;;;;;;;;;49.25;42.00;;;;;11.83;60.68;101306.19;5057349;28;45380;-80
2022/03/05 09:08:25;;;;;;;;;47.75;41.50;;;;;11.92;59.89;101302.78;5056730;28;45426;-77
2022/03/05 09:10:51;;;;;;;;;45.50;38.25;;;;;11.90;59.96;101292.16;5056962;28;45380;-80
2022/03/05 09:13:16;;;;;;;;;44.50;37.50;;;;;11.97;59.94;101275.53;5057340;28;45291;-78
2022/03/05 09:15:42;;;;;;;;;51.50;40.75;;;;;12.27;58.95;101287.25;5057321;28;45391;-78
2022/03/05 09:18:07;;;;;;;;;47.25;38.00;;;;;12.66;58.38;101301.72;5057096;28;45493;-79
2022/03/05 09:20:33;;;;;;;;;47.75;38.50;;;;;12.87;58.11;101298.34;5056997;28;45312;-80
2022/03/05 09:22:59;;;;;;;;;55.50;44.50;;;;;13.22;56.53;101301.25;5056887;28;45154;-79
2022/03/05 09:25:25;;;;;;;;;45.75;39.00;;;;;13.38;56.07;101300.41;5056971;28;45319;-78
2022/03/05 09:27:52;;;;;;;;;53.50;42.50;;;;;13.60;55.66;101288.19;5056415;28;45814;-77
2022/03/05 09:30:17;;;;;;;;;47.00;40.50;;;;;13.99;55.15;101300.66;5056573;28;45308;-78
2022/03/05 09:32:44;;;;;;;;;46.75;37.50;;;;;14.24;53.83;101285.69;5038483;28;45332;-80
2022/03/05 09:35:10;;;;;;;;;43.50;35.25;;;;;14.62;53.18;101298.13;5055363;28;45346;-75
2022/03/05 09:37:36;;;;;;;;;50.50;40.50;;;;;15.07;52.08;101297.16;5056301;28;46121;-80
2022/03/05 09:40:04;;;;;;;;;37.75;35.50;;;;;15.55;50.75;101295.25;5056281;28;45427;-80
2022/03/05 09:42:29;;;;;;;;;44.00;37.25;;;;;16.09;49.45;101296.75;5056676;28;45474;-79
2022/03/05 09:44:55;;;;;;;;;50.50;42.25;;;;;16.24;48.12;101283.38;5056583;28;45526;-77
2022/03/05 09:47:22;;;;;;;;;51.00;39.75;;;;;16.42;48.41;101282.34;5056130;28;45336;-79
2022/03/05 09:49:49;;;;;;;;;51.75;42.25;;;;;16.57;47.24;101260.06;5056266;28;45336;-78
2022/03/05 09:52:14;;;;;;;;;48.75;38.25;;;;;17.62;45.28;101285.56;5056085;28;45422;-75
2022/03/05 09:54:40;;;;;;;;;47.50;39.25;;;;;17.75;44.62;101272.13;5055047;28;45536;-74
2022/03/05 09:57:12;;;;;;;;;35.00;32.00;;;;;18.73;42.65;101284.84;5056291;28;45904;-80
2022/03/05 09:59:38;;;;;;;;;46.75;39.00;;;;;20.70;39.85;101288.69;5056129;28;45399;-82
2022/03/05 10:02:05;;;;;;;;;46.00;37.50;;;;;22.97;35.64;101289.88;5056300;28;45526;-78
2022/03/05 10:04:31;;;;;;;;;42.75;36.00;;;;;23.40;34.45;101279.41;5055985;28;45367;-81
2022/03/05 10:07:12;;;;;;;;;42.25;37.25;;;;;24.29;32.93;101287.59;5055569;28;47681;-81
2022/03/05 10:09:38;;;;;;;;;45.00;36.00;;;;;24.95;31.59;101286.63;5056057;28;45390;-82
2022/03/05 10:12:28;;;;;;;;;45.25;36.00;;;;;26.54;30.29;101268.41;5055975;28;45370;-80
2022/03/05 10:15:04;;;;;;;;;47.67;37.67;;;;;27.82;28.19;101274.22;5034684;28;45638;-82
2022/03/05 10:17:45;;;;;;;;;48.00;39.67;;;;;27.83;27.58;101273.28;5055603;28;45509;-82
2022/03/05 10:20:11;;;;;;;;;43.67;37.00;;;;;27.49;27.31;101277.81;5055805;28;45178;-82
2022/03/05 10:22:36;;;;;;;;;47.67;35.33;;;;;27.93;26.66;101273.66;5056012;28;45365;-79
2022/03/05 10:25:02;;;;;;;;;48.33;39.33;;;;;30.14;24.28;101286.41;5056146;28;45371;-75
2022/03/05 10:27:30;;;;;;;;;46.00;38.33;;;;;31.60;22.61;101281.78;5055646;28;46830;-79
2022/03/05 10:29:56;;;;;;;;;40.67;35.00;;;;;32.77;21.94;101277.63;5055617;28;45524;-75
2022/03/05 10:32:22;;;;;;;;;36.67;33.33;;;;;34.25;20.00;101284.84;5055883;28;45382;-76
2022/03/05 10:34:53;;;;;;;;;39.67;34.67;;;;;35.30;19.28;101291.38;5055730;28;45350;-77
2022/03/05 10:37:22;;;;;;;;;46.00;37.00;;;;;35.60;18.70;101278.72;5055696;28;46096;-75
2022/03/05 10:39:49;;;;;;;;;37.25;34.25;;;;;33.85;20.19;101287.22;5057167;28;45477;-77
2022/03/05 10:42:24;;;;;;;;;40.00;35.00;;;;;33.93;19.60;101267.50;5059183;28;45328;-77
2022/03/05 10:45:00;;;;;;;;;46.25;37.25;;;;;34.16;18.63;101266.47;5059549;28;45459;-82
2022/03/05 10:47:26;;;;;;;;;39.50;34.00;;;;;34.46;18.75;101284.94;5059214;28;46080;-79
2022/03/05 10:49:51;;;;;;;;;40.50;35.75;;;;;34.12;19.64;101273.19;5059185;28;45424;-82
2022/03/05 10:52:17;;;;;;;;;46.50;37.50;;;;;34.48;18.52;101279.34;5060060;28;45267;-83
2022/03/05 10:54:45;;;;;;;;;42.50;35.50;;;;;35.26;18.27;101278.94;5060340;28;45403;-83
2022/03/05 10:57:17;;;;;;;;;42.25;35.50;;;;;35.00;18.46;101262.06;5059214;28;47167;-83
2022/03/05 10:59:44;;;;;;;;;40.00;36.50;;;;;35.67;16.97;101280.78;5043148;28;45343;-79
2022/03/05 11:02:12;;;;;;;;;42.25;36.25;;;;;36.06;16.45;101277.31;5060039;28;45359;-81
2022/03/05 11:04:45;;;;;;;;;39.50;35.50;;;;;36.58;15.48;101276.13;5059799;28;45463;-81
2022/03/05 11:07:12;;;;;;;;;40.50;35.75;;;;;36.47;15.72;101259.78;5059333;28;47111;-80
2022/03/05 11:09:39;;;;;;;;;46.00;38.00;;;;;36.36;15.57;101266.28;5058969;28;45472;-79